sensor_id;sensor_type;location;lat;lon;timestamp;P1;durP1;ratioP1;P2;durP2;ratioP2
14470;SDS011;7321;50.802;4.336;2023-04-28T00:01:42;28.53;;;22.50;;
14470;SDS011;7321;50.802;4.336;2023-04-28T00:04:08;29.77;;;23.27;;
14470;SDS011;7321;50.802;4.336;2023-04-28T00:06:34;32.63;;;25.27;;
14470;SDS011;7321;50.802;4.336;2023-04-28T00:09:01;31.50;;;24.87;;
14470;SDS011;7321;50.802;4.336;2023-04-28T00:11:27;33.77;;;24.93;;
14470;SDS011;7321;50.802;4.336;2023-04-28T00:13:53;33.80;;;25.00;;
14470;SDS011;7321;50.802;4.336;2023-04-28T00:16:19;35.87;;;25.57;;
14470;SDS011;7321;50.802;4.336;2023-04-28T00:18:45;35.67;;;25.57;;
14470;SDS011;7321;50.802;4.336;2023-04-28T00:21:11;33.00;;;26.30;;
14470;SDS011;7321;50.802;4.336;2023-04-28T00:23:37;33.30;;;26.50;;
14470;SDS011;7321;50.802;4.336;2023-04-28T00:26:02;32.37;;;26.57;;
14470;SDS011;7321;50.802;4.336;2023-04-28T00:28:28;34.70;;;25.80;;
14470;SDS011;7321;50.802;4.336;2023-04-28T00:30:54;34.20;;;26.63;;
14470;SDS011;7321;50.802;4.336;2023-04-28T00:33:20;32.20;;;25.27;;
14470;SDS011;7321;50.802;4.336;2023-04-28T00:35:46;35.53;;;26.50;;
14470;SDS011;7321;50.802;4.336;2023-04-28T00:38:11;34.00;;;26.60;;
14470;SDS011;7321;50.802;4.336;2023-04-28T00:40:37;32.50;;;26.33;;
14470;SDS011;7321;50.802;4.336;2023-04-28T00:43:04;35.83;;;27.27;;
14470;SDS011;7321;50.802;4.336;2023-04-28T00:45:30;36.23;;;27.43;;
14470;SDS011;7321;50.802;4.336;2023-04-28T00:47:56;38.33;;;28.67;;
14470;SDS011;7321;50.802;4.336;2023-04-28T00:50:23;33.83;;;26.97;;
14470;SDS011;7321;50.802;4.336;2023-04-28T00:52:50;36.73;;;27.33;;
14470;SDS011;7321;50.802;4.336;2023-04-28T00:55:18;31.57;;;26.03;;
14470;SDS011;7321;50.802;4.336;2023-04-28T00:57:45;31.90;;;26.37;;
14470;SDS011;7321;50.802;4.336;2023-04-28T01:00:12;36.27;;;27.17;;
14470;SDS011;7321;50.802;4.336;2023-04-28T01:02:40;35.93;;;27.53;;
14470;SDS011;7321;50.802;4.336;2023-04-28T01:05:06;34.33;;;27.80;;
14470;SDS011;7321;50.802;4.336;2023-04-28T01:07:33;33.73;;;26.77;;
14470;SDS011;7321;50.802;4.336;2023-04-28T01:09:59;36.97;;;27.33;;
14470;SDS011;7321;50.802;4.336;2023-04-28T01:12:25;37.50;;;28.70;;
14470;SDS011;7321;50.802;4.336;2023-04-28T01:14:51;36.30;;;28.47;;
14470;SDS011;7321;50.802;4.336;2023-04-28T01:17:17;38.53;;;28.80;;
14470;SDS011;7321;50.802;4.336;2023-04-28T01:19:43;35.13;;;27.97;;
14470;SDS011;7321;50.802;4.336;2023-04-28T01:22:08;38.70;;;28.63;;
14470;SDS011;7321;50.802;4.336;2023-04-28T01:24:41;34.57;;;27.77;;
14470;SDS011;7321;50.802;4.336;2023-04-28T01:27:06;38.43;;;28.53;;
14470;SDS011;7321;50.802;4.336;2023-04-28T01:29:32;38.30;;;29.40;;
14470;SDS011;7321;50.802;4.336;2023-04-28T01:31:58;34.87;;;28.37;;
14470;SDS011;7321;50.802;4.336;2023-04-28T01:34:24;36.73;;;28.90;;
14470;SDS011;7321;50.802;4.336;2023-04-28T01:36:50;38.07;;;29.83;;
14470;SDS011;7321;50.802;4.336;2023-04-28T01:39:16;39.80;;;29.80;;
14470;SDS011;7321;50.802;4.336;2023-04-28T01:41:42;39.07;;;30.17;;
14470;SDS011;7321;50.802;4.336;2023-04-28T01:44:07;39.90;;;29.77;;
14470;SDS011;7321;50.802;4.336;2023-04-28T01:46:33;39.70;;;29.80;;
14470;SDS011;7321;50.802;4.336;2023-04-28T01:49:00;39.73;;;30.83;;
14470;SDS011;7321;50.802;4.336;2023-04-28T01:51:26;39.27;;;30.67;;
14470;SDS011;7321;50.802;4.336;2023-04-28T01:53:52;41.63;;;29.47;;
14470;SDS011;7321;50.802;4.336;2023-04-28T01:56:17;39.40;;;28.87;;
14470;SDS011;7321;50.802;4.336;2023-04-28T01:58:43;40.10;;;29.17;;
14470;SDS011;7321;50.802;4.336;2023-04-28T02:01:09;37.40;;;29.93;;
14470;SDS011;7321;50.802;4.336;2023-04-28T02:03:35;37.97;;;30.30;;
14470;SDS011;7321;50.802;4.336;2023-04-28T02:06:01;40.73;;;31.00;;
14470;SDS011;7321;50.802;4.336;2023-04-28T02:08:27;40.27;;;31.07;;
14470;SDS011;7321;50.802;4.336;2023-04-28T02:10:53;40.70;;;31.17;;
14470;SDS011;7321;50.802;4.336;2023-04-28T02:13:19;42.10;;;31.43;;
14470;SDS011;7321;50.802;4.336;2023-04-28T02:15:44;45.60;;;32.83;;
14470;SDS011;7321;50.802;4.336;2023-04-28T02:18:10;39.73;;;30.90;;
14470;SDS011;7321;50.802;4.336;2023-04-28T02:20:36;36.30;;;30.57;;
14470;SDS011;7321;50.802;4.336;2023-04-28T02:23:02;38.80;;;29.87;;
14470;SDS011;7321;50.802;4.336;2023-04-28T02:25:28;42.00;;;30.63;;
14470;SDS011;7321;50.802;4.336;2023-04-28T02:27:54;38.87;;;29.97;;
14470;SDS011;7321;50.802;4.336;2023-04-28T02:30:20;39.10;;;30.00;;
14470;SDS011;7321;50.802;4.336;2023-04-28T02:32:46;37.77;;;29.43;;
14470;SDS011;7321;50.802;4.336;2023-04-28T02:35:13;37.13;;;30.70;;
14470;SDS011;7321;50.802;4.336;2023-04-28T02:37:38;39.07;;;29.50;;
14470;SDS011;7321;50.802;4.336;2023-04-28T02:40:05;37.13;;;29.07;;
14470;SDS011;7321;50.802;4.336;2023-04-28T02:42:31;36.20;;;28.50;;
14470;SDS011;7321;50.802;4.336;2023-04-28T02:44:57;36.13;;;27.93;;
14470;SDS011;7321;50.802;4.336;2023-04-28T02:47:23;35.87;;;28.70;;
14470;SDS011;7321;50.802;4.336;2023-04-28T02:49:49;37.17;;;28.63;;
14470;SDS011;7321;50.802;4.336;2023-04-28T02:52:15;34.03;;;27.33;;
14470;SDS011;7321;50.802;4.336;2023-04-28T02:54:40;37.00;;;29.20;;
14470;SDS011;7321;50.802;4.336;2023-04-28T02:57:07;32.50;;;27.10;;
14470;SDS011;7321;50.802;4.336;2023-04-28T02:59:32;36.23;;;28.47;;
14470;SDS011;7321;50.802;4.336;2023-04-28T03:01:59;34.30;;;27.63;;
14470;SDS011;7321;50.802;4.336;2023-04-28T03:04:25;35.83;;;28.97;;
14470;SDS011;7321;50.802;4.336;2023-04-28T03:06:51;36.13;;;27.93;;
14470;SDS011;7321;50.802;4.336;2023-04-28T03:09:17;33.80;;;27.50;;
14470;SDS011;7321;50.802;4.336;2023-04-28T03:11:43;35.23;;;27.60;;
14470;SDS011;7321;50.802;4.336;2023-04-28T03:14:10;40.50;;;28.60;;
14470;SDS011;7321;50.802;4.336;2023-04-28T03:16:35;38.40;;;28.87;;
14470;SDS011;7321;50.802;4.336;2023-04-28T03:19:02;33.33;;;27.80;;
14470;SDS011;7321;50.802;4.336;2023-04-28T03:21:28;37.00;;;29.33;;
14470;SDS011;7321;50.802;4.336;2023-04-28T03:23:54;34.53;;;27.73;;
14470;SDS011;7321;50.802;4.336;2023-04-28T03:26:20;36.77;;;28.40;;
14470;SDS011;7321;50.802;4.336;2023-04-28T03:28:46;38.03;;;28.27;;
14470;SDS011;7321;50.802;4.336;2023-04-28T03:31:12;36.03;;;28.17;;
14470;SDS011;7321;50.802;4.336;2023-04-28T03:33:37;34.40;;;26.20;;
14470;SDS011;7321;50.802;4.336;2023-04-28T03:36:03;34.10;;;27.97;;
14470;SDS011;7321;50.802;4.336;2023-04-28T03:38:29;33.87;;;27.50;;
14470;SDS011;7321;50.802;4.336;2023-04-28T03:40:55;33.20;;;26.97;;
14470;SDS011;7321;50.802;4.336;2023-04-28T03:43:21;34.43;;;27.67;;
14470;SDS011;7321;50.802;4.336;2023-04-28T03:45:47;35.60;;;27.77;;
14470;SDS011;7321;50.802;4.336;2023-04-28T03:48:13;36.67;;;27.70;;
14470;SDS011;7321;50.802;4.336;2023-04-28T03:50:39;34.50;;;28.07;;
14470;SDS011;7321;50.802;4.336;2023-04-28T03:53:06;32.73;;;27.73;;
14470;SDS011;7321;50.802;4.336;2023-04-28T03:55:32;36.30;;;28.17;;
14470;SDS011;7321;50.802;4.336;2023-04-28T03:57:58;35.97;;;28.77;;
14470;SDS011;7321;50.802;4.336;2023-04-28T04:00:24;36.47;;;27.30;;
14470;SDS011;7321;50.802;4.336;2023-04-28T04:02:49;34.10;;;28.60;;
14470;SDS011;7321;50.802;4.336;2023-04-28T04:05:15;34.30;;;27.70;;
14470;SDS011;7321;50.802;4.336;2023-04-28T04:07:41;33.37;;;26.37;;
14470;SDS011;7321;50.802;4.336;2023-04-28T04:10:07;32.63;;;27.10;;
14470;SDS011;7321;50.802;4.336;2023-04-28T04:12:33;31.13;;;26.13;;
14470;SDS011;7321;50.802;4.336;2023-04-28T04:14:59;36.20;;;27.20;;
14470;SDS011;7321;50.802;4.336;2023-04-28T04:17:24;34.57;;;28.07;;
14470;SDS011;7321;50.802;4.336;2023-04-28T04:19:50;36.57;;;28.83;;
14470;SDS011;7321;50.802;4.336;2023-04-28T04:22:16;34.53;;;27.40;;
14470;SDS011;7321;50.802;4.336;2023-04-28T04:24:42;35.70;;;25.70;;
14470;SDS011;7321;50.802;4.336;2023-04-28T04:27:08;32.23;;;25.67;;
14470;SDS011;7321;50.802;4.336;2023-04-28T04:29:34;29.80;;;23.53;;
14470;SDS011;7321;50.802;4.336;2023-04-28T04:32:00;31.50;;;25.43;;
14470;SDS011;7321;50.802;4.336;2023-04-28T04:34:25;27.90;;;22.80;;
14470;SDS011;7321;50.802;4.336;2023-04-28T04:36:51;27.97;;;22.13;;
14470;SDS011;7321;50.802;4.336;2023-04-28T04:39:17;27.93;;;21.90;;
14470;SDS011;7321;50.802;4.336;2023-04-28T04:41:43;26.47;;;21.37;;
14470;SDS011;7321;50.802;4.336;2023-04-28T04:44:08;23.57;;;19.70;;
14470;SDS011;7321;50.802;4.336;2023-04-28T04:46:34;24.17;;;19.70;;
14470;SDS011;7321;50.802;4.336;2023-04-28T04:49:01;25.07;;;20.20;;
14470;SDS011;7321;50.802;4.336;2023-04-28T04:51:27;31.57;;;24.73;;
14470;SDS011;7321;50.802;4.336;2023-04-28T04:53:53;22.13;;;18.17;;
14470;SDS011;7321;50.802;4.336;2023-04-28T04:56:19;27.27;;;20.63;;
14470;SDS011;7321;50.802;4.336;2023-04-28T04:58:45;20.30;;;16.80;;
14470;SDS011;7321;50.802;4.336;2023-04-28T05:01:12;20.03;;;17.23;;
14470;SDS011;7321;50.802;4.336;2023-04-28T05:03:37;21.33;;;17.93;;
14470;SDS011;7321;50.802;4.336;2023-04-28T05:06:03;20.80;;;17.37;;
14470;SDS011;7321;50.802;4.336;2023-04-28T05:08:29;20.03;;;16.83;;
14470;SDS011;7321;50.802;4.336;2023-04-28T05:10:55;18.90;;;16.53;;
14470;SDS011;7321;50.802;4.336;2023-04-28T05:13:21;23.67;;;18.17;;
14470;SDS011;7321;50.802;4.336;2023-04-28T05:15:47;18.63;;;16.63;;
14470;SDS011;7321;50.802;4.336;2023-04-28T05:18:14;15.53;;;13.60;;
14470;SDS011;7321;50.802;4.336;2023-04-28T05:20:40;16.57;;;14.77;;
14470;SDS011;7321;50.802;4.336;2023-04-28T05:23:06;16.63;;;14.67;;
14470;SDS011;7321;50.802;4.336;2023-04-28T05:25:32;15.77;;;14.17;;
14470;SDS011;7321;50.802;4.336;2023-04-28T05:27:58;14.47;;;12.90;;
14470;SDS011;7321;50.802;4.336;2023-04-28T05:30:28;13.57;;;11.80;;
14470;SDS011;7321;50.802;4.336;2023-04-28T05:32:54;12.60;;;11.30;;
14470;SDS011;7321;50.802;4.336;2023-04-28T05:35:20;12.63;;;11.33;;
14470;SDS011;7321;50.802;4.336;2023-04-28T05:37:46;13.07;;;11.77;;
14470;SDS011;7321;50.802;4.336;2023-04-28T05:40:12;11.90;;;10.80;;
14470;SDS011;7321;50.802;4.336;2023-04-28T05:42:38;12.80;;;11.47;;
14470;SDS011;7321;50.802;4.336;2023-04-28T05:45:04;12.43;;;11.23;;
14470;SDS011;7321;50.802;4.336;2023-04-28T05:47:31;12.20;;;10.93;;
14470;SDS011;7321;50.802;4.336;2023-04-28T05:49:56;21.70;;;18.47;;
14470;SDS011;7321;50.802;4.336;2023-04-28T05:52:22;16.53;;;14.73;;
14470;SDS011;7321;50.802;4.336;2023-04-28T05:54:48;13.73;;;12.33;;
14470;SDS011;7321;50.802;4.336;2023-04-28T05:57:14;11.83;;;10.60;;
14470;SDS011;7321;50.802;4.336;2023-04-28T05:59:39;12.13;;;10.97;;
14470;SDS011;7321;50.802;4.336;2023-04-28T06:02:05;12.37;;;11.20;;
14470;SDS011;7321;50.802;4.336;2023-04-28T06:04:31;12.83;;;11.40;;
14470;SDS011;7321;50.802;4.336;2023-04-28T06:06:57;11.93;;;10.83;;
14470;SDS011;7321;50.802;4.336;2023-04-28T06:09:23;10.87;;;9.77;;
14470;SDS011;7321;50.802;4.336;2023-04-28T06:11:49;11.00;;;9.90;;
14470;SDS011;7321;50.802;4.336;2023-04-28T06:14:15;11.10;;;10.10;;
14470;SDS011;7321;50.802;4.336;2023-04-28T06:16:41;9.90;;;9.10;;
14470;SDS011;7321;50.802;4.336;2023-04-28T06:19:07;11.20;;;10.17;;
14470;SDS011;7321;50.802;4.336;2023-04-28T06:21:33;10.53;;;9.53;;
14470;SDS011;7321;50.802;4.336;2023-04-28T06:23:59;10.77;;;9.10;;
14470;SDS011;7321;50.802;4.336;2023-04-28T06:26:26;10.20;;;9.13;;
14470;SDS011;7321;50.802;4.336;2023-04-28T06:28:51;10.13;;;8.93;;
14470;SDS011;7321;50.802;4.336;2023-04-28T06:31:17;10.47;;;9.37;;
14470;SDS011;7321;50.802;4.336;2023-04-28T06:33:43;10.50;;;9.60;;
14470;SDS011;7321;50.802;4.336;2023-04-28T06:36:09;10.13;;;9.13;;
14470;SDS011;7321;50.802;4.336;2023-04-28T06:38:38;10.40;;;9.43;;
14470;SDS011;7321;50.802;4.336;2023-04-28T06:41:06;9.60;;;8.70;;
14470;SDS011;7321;50.802;4.336;2023-04-28T06:43:33;9.87;;;8.97;;
14470;SDS011;7321;50.802;4.336;2023-04-28T06:45:59;9.73;;;8.83;;
14470;SDS011;7321;50.802;4.336;2023-04-28T06:48:25;9.27;;;8.40;;
14470;SDS011;7321;50.802;4.336;2023-04-28T06:50:51;9.33;;;8.50;;
14470;SDS011;7321;50.802;4.336;2023-04-28T06:53:17;9.87;;;8.53;;
14470;SDS011;7321;50.802;4.336;2023-04-28T06:55:42;9.00;;;8.17;;
14470;SDS011;7321;50.802;4.336;2023-04-28T06:58:08;8.33;;;7.53;;
14470;SDS011;7321;50.802;4.336;2023-04-28T07:00:35;8.10;;;7.40;;
14470;SDS011;7321;50.802;4.336;2023-04-28T07:03:01;8.40;;;7.70;;
14470;SDS011;7321;50.802;4.336;2023-04-28T07:05:27;7.68;;;6.97;;
14470;SDS011;7321;50.802;4.336;2023-04-28T07:07:53;8.20;;;7.40;;
14470;SDS011;7321;50.802;4.336;2023-04-28T07:10:18;8.40;;;7.70;;
14470;SDS011;7321;50.802;4.336;2023-04-28T07:12:44;9.33;;;8.53;;
14470;SDS011;7321;50.802;4.336;2023-04-28T07:15:10;10.00;;;9.00;;
14470;SDS011;7321;50.802;4.336;2023-04-28T07:17:36;10.23;;;9.33;;
14470;SDS011;7321;50.802;4.336;2023-04-28T07:20:03;9.90;;;9.00;;
14470;SDS011;7321;50.802;4.336;2023-04-28T07:22:29;10.00;;;9.07;;
14470;SDS011;7321;50.802;4.336;2023-04-28T07:24:55;9.43;;;8.55;;
14470;SDS011;7321;50.802;4.336;2023-04-28T07:27:21;8.65;;;7.85;;
14470;SDS011;7321;50.802;4.336;2023-04-28T07:29:47;7.43;;;6.88;;
14470;SDS011;7321;50.802;4.336;2023-04-28T07:32:13;7.07;;;6.47;;
14470;SDS011;7321;50.802;4.336;2023-04-28T07:34:39;7.20;;;6.50;;
14470;SDS011;7321;50.802;4.336;2023-04-28T07:37:05;7.45;;;6.75;;
14470;SDS011;7321;50.802;4.336;2023-04-28T07:39:31;5.90;;;5.50;;
14470;SDS011;7321;50.802;4.336;2023-04-28T07:41:59;6.28;;;5.68;;
14470;SDS011;7321;50.802;4.336;2023-04-28T07:44:26;6.47;;;5.97;;
14470;SDS011;7321;50.802;4.336;2023-04-28T07:46:53;6.13;;;5.72;;
14470;SDS011;7321;50.802;4.336;2023-04-28T07:49:19;5.85;;;5.30;;
14470;SDS011;7321;50.802;4.336;2023-04-28T07:51:45;5.13;;;4.72;;
14470;SDS011;7321;50.802;4.336;2023-04-28T07:54:11;5.22;;;4.82;;
14470;SDS011;7321;50.802;4.336;2023-04-28T07:56:37;4.38;;;3.97;;
14470;SDS011;7321;50.802;4.336;2023-04-28T07:59:03;4.70;;;4.25;;
14470;SDS011;7321;50.802;4.336;2023-04-28T08:01:29;3.97;;;3.65;;
14470;SDS011;7321;50.802;4.336;2023-04-28T08:03:55;2.85;;;2.65;;
14470;SDS011;7321;50.802;4.336;2023-04-28T08:06:21;3.30;;;2.97;;
14470;SDS011;7321;50.802;4.336;2023-04-28T08:08:47;3.78;;;3.50;;
14470;SDS011;7321;50.802;4.336;2023-04-28T08:11:13;4.25;;;3.97;;
14470;SDS011;7321;50.802;4.336;2023-04-28T08:13:39;2.97;;;2.70;;
14470;SDS011;7321;50.802;4.336;2023-04-28T08:16:05;3.45;;;3.25;;
14470;SDS011;7321;50.802;4.336;2023-04-28T08:18:31;3.10;;;2.90;;
14470;SDS011;7321;50.802;4.336;2023-04-28T08:20:56;4.18;;;3.80;;
14470;SDS011;7321;50.802;4.336;2023-04-28T08:23:22;4.78;;;4.47;;
14470;SDS011;7321;50.802;4.336;2023-04-28T08:25:52;5.53;;;5.13;;
14470;SDS011;7321;50.802;4.336;2023-04-28T08:28:18;6.72;;;3.42;;
14470;SDS011;7321;50.802;4.336;2023-04-28T08:30:44;4.25;;;3.92;;
14470;SDS011;7321;50.802;4.336;2023-04-28T08:33:23;2.83;;;2.63;;
14470;SDS011;7321;50.802;4.336;2023-04-28T08:35:49;3.58;;;3.28;;
14470;SDS011;7321;50.802;4.336;2023-04-28T08:38:15;3.53;;;2.30;;
14470;SDS011;7321;50.802;4.336;2023-04-28T08:40:42;2.20;;;2.10;;
14470;SDS011;7321;50.802;4.336;2023-04-28T08:43:08;2.33;;;2.17;;
14470;SDS011;7321;50.802;4.336;2023-04-28T08:45:39;1.33;;;1.23;;
14470;SDS011;7321;50.802;4.336;2023-04-28T08:48:17;1.60;;;1.50;;
14470;SDS011;7321;50.802;4.336;2023-04-28T08:50:50;2.40;;;1.13;;
14470;SDS011;7321;50.802;4.336;2023-04-28T08:53:25;0.85;;;0.80;;
14470;SDS011;7321;50.802;4.336;2023-04-28T08:55:53;0.77;;;0.65;;
14470;SDS011;7321;50.802;4.336;2023-04-28T08:58:21;0.70;;;0.70;;
14470;SDS011;7321;50.802;4.336;2023-04-28T09:00:48;0.80;;;0.80;;
14470;SDS011;7321;50.802;4.336;2023-04-28T09:03:15;1.30;;;0.90;;
14470;SDS011;7321;50.802;4.336;2023-04-28T09:05:41;2.58;;;2.25;;
14470;SDS011;7321;50.802;4.336;2023-04-28T09:08:07;1.73;;;1.02;;
14470;SDS011;7321;50.802;4.336;2023-04-28T09:10:33;1.48;;;1.00;;
14470;SDS011;7321;50.802;4.336;2023-04-28T09:12:58;1.88;;;0.70;;
14470;SDS011;7321;50.802;4.336;2023-04-28T09:15:35;0.82;;;0.80;;
14470;SDS011;7321;50.802;4.336;2023-04-28T09:18:03;1.15;;;1.00;;
14470;SDS011;7321;50.802;4.336;2023-04-28T09:20:31;1.38;;;0.80;;
14470;SDS011;7321;50.802;4.336;2023-04-28T09:26:02;1.77;;;1.10;;
14470;SDS011;7321;50.802;4.336;2023-04-28T09:28:29;2.30;;;1.52;;
14470;SDS011;7321;50.802;4.336;2023-04-28T09:30:55;2.30;;;2.10;;
14470;SDS011;7321;50.802;4.336;2023-04-28T09:33:21;2.70;;;2.50;;
14470;SDS011;7321;50.802;4.336;2023-04-28T09:35:48;2.78;;;2.33;;
14470;SDS011;7321;50.802;4.336;2023-04-28T09:38:14;3.85;;;2.80;;
14470;SDS011;7321;50.802;4.336;2023-04-28T09:40:51;3.00;;;2.20;;
14470;SDS011;7321;50.802;4.336;2023-04-28T09:45:53;3.53;;;3.22;;
14470;SDS011;7321;50.802;4.336;2023-04-28T09:51:19;4.55;;;3.50;;
14470;SDS011;7321;50.802;4.336;2023-04-28T09:53:45;4.63;;;4.22;;
14470;SDS011;7321;50.802;4.336;2023-04-28T09:56:11;4.50;;;4.10;;
14470;SDS011;7321;50.802;4.336;2023-04-28T09:58:39;4.80;;;4.30;;
14470;SDS011;7321;50.802;4.336;2023-04-28T10:01:06;4.75;;;4.35;;
14470;SDS011;7321;50.802;4.336;2023-04-28T10:03:35;6.72;;;6.22;;
14470;SDS011;7321;50.802;4.336;2023-04-28T10:06:03;4.88;;;4.40;;
14470;SDS011;7321;50.802;4.336;2023-04-28T10:08:31;5.07;;;4.03;;
14470;SDS011;7321;50.802;4.336;2023-04-28T10:10:57;3.70;;;3.40;;
14470;SDS011;7321;50.802;4.336;2023-04-28T10:13:24;4.13;;;3.83;;
14470;SDS011;7321;50.802;4.336;2023-04-28T10:15:50;4.72;;;3.50;;
14470;SDS011;7321;50.802;4.336;2023-04-28T10:18:21;3.40;;;3.10;;
14470;SDS011;7321;50.802;4.336;2023-04-28T10:20:48;3.20;;;2.90;;
14470;SDS011;7321;50.802;4.336;2023-04-28T10:26:20;2.17;;;2.05;;
14470;SDS011;7321;50.802;4.336;2023-04-28T10:28:57;2.20;;;2.10;;
14470;SDS011;7321;50.802;4.336;2023-04-28T10:31:23;1.67;;;1.40;;
14470;SDS011;7321;50.802;4.336;2023-04-28T10:33:49;3.05;;;1.50;;
14470;SDS011;7321;50.802;4.336;2023-04-28T10:39:14;1.38;;;1.27;;
14470;SDS011;7321;50.802;4.336;2023-04-28T10:41:40;3.10;;;1.25;;
14470;SDS011;7321;50.802;4.336;2023-04-28T10:47:07;2.47;;;2.28;;
14470;SDS011;7321;50.802;4.336;2023-04-28T11:00:42;2.88;;;2.65;;
14470;SDS011;7321;50.802;4.336;2023-04-28T11:06:26;3.28;;;2.08;;
14470;SDS011;7321;50.802;4.336;2023-04-28T11:08:59;1.70;;;1.60;;
14470;SDS011;7321;50.802;4.336;2023-04-28T11:17:06;3.28;;;2.28;;
14470;SDS011;7321;50.802;4.336;2023-04-28T11:19:34;2.45;;;2.25;;
14470;SDS011;7321;50.802;4.336;2023-04-28T11:22:05;2.92;;;2.60;;
14470;SDS011;7321;50.802;4.336;2023-04-28T11:24:38;3.67;;;3.03;;
14470;SDS011;7321;50.802;4.336;2023-04-28T11:27:04;3.47;;;3.15;;
14470;SDS011;7321;50.802;4.336;2023-04-28T11:31:57;4.15;;;3.10;;
14470;SDS011;7321;50.802;4.336;2023-04-28T11:34:39;4.78;;;3.92;;
14470;SDS011;7321;50.802;4.336;2023-04-28T11:37:07;4.40;;;4.00;;
14470;SDS011;7321;50.802;4.336;2023-04-28T11:39:40;4.30;;;3.90;;
14470;SDS011;7321;50.802;4.336;2023-04-28T11:42:09;11.00;;;7.47;;
14470;SDS011;7321;50.802;4.336;2023-04-28T11:44:35;4.10;;;3.55;;
14470;SDS011;7321;50.802;4.336;2023-04-28T11:47:01;2.55;;;2.35;;
14470;SDS011;7321;50.802;4.336;2023-04-28T11:49:40;2.75;;;2.53;;
14470;SDS011;7321;50.802;4.336;2023-04-28T11:52:10;2.30;;;1.90;;
14470;SDS011;7321;50.802;4.336;2023-04-28T11:54:38;2.53;;;1.80;;
14470;SDS011;7321;50.802;4.336;2023-04-28T11:57:15;3.10;;;2.00;;
14470;SDS011;7321;50.802;4.336;2023-04-28T11:59:45;1.90;;;1.80;;
14470;SDS011;7321;50.802;4.336;2023-04-28T12:02:11;2.17;;;1.98;;
14470;SDS011;7321;50.802;4.336;2023-04-28T12:04:42;2.72;;;1.73;;
14470;SDS011;7321;50.802;4.336;2023-04-28T12:07:12;1.88;;;1.77;;
14470;SDS011;7321;50.802;4.336;2023-04-28T12:09:40;2.20;;;2.03;;
14470;SDS011;7321;50.802;4.336;2023-04-28T12:12:28;3.08;;;1.90;;
14470;SDS011;7321;50.802;4.336;2023-04-28T12:15:04;2.22;;;2.03;;
14470;SDS011;7321;50.802;4.336;2023-04-28T12:17:36;4.60;;;1.70;;
14470;SDS011;7321;50.802;4.336;2023-04-28T12:20:07;1.95;;;1.52;;
14470;SDS011;7321;50.802;4.336;2023-04-28T12:22:43;1.65;;;1.40;;
14470;SDS011;7321;50.802;4.336;2023-04-28T12:25:14;1.42;;;1.17;;
14470;SDS011;7321;50.802;4.336;2023-04-28T12:27:57;1.52;;;1.42;;
14470;SDS011;7321;50.802;4.336;2023-04-28T12:30:34;1.85;;;1.33;;
14470;SDS011;7321;50.802;4.336;2023-04-28T12:33:20;6.88;;;2.30;;
14470;SDS011;7321;50.802;4.336;2023-04-28T12:35:58;1.98;;;1.83;;
14470;SDS011;7321;50.802;4.336;2023-04-28T12:38:24;2.40;;;2.20;;
14470;SDS011;7321;50.802;4.336;2023-04-28T12:40:52;1.63;;;1.40;;
14470;SDS011;7321;50.802;4.336;2023-04-28T12:43:18;1.63;;;1.52;;
14470;SDS011;7321;50.802;4.336;2023-04-28T12:45:45;2.03;;;1.30;;
14470;SDS011;7321;50.802;4.336;2023-04-28T12:48:11;1.40;;;1.30;;
14470;SDS011;7321;50.802;4.336;2023-04-28T12:50:36;2.00;;;1.17;;
14470;SDS011;7321;50.802;4.336;2023-04-28T12:53:02;1.83;;;1.40;;
14470;SDS011;7321;50.802;4.336;2023-04-28T12:55:29;1.58;;;1.17;;
14470;SDS011;7321;50.802;4.336;2023-04-28T12:57:54;1.88;;;1.17;;
14470;SDS011;7321;50.802;4.336;2023-04-28T13:00:20;2.10;;;1.95;;
14470;SDS011;7321;50.802;4.336;2023-04-28T13:02:48;2.83;;;2.45;;
14470;SDS011;7321;50.802;4.336;2023-04-28T13:05:15;2.30;;;2.10;;
14470;SDS011;7321;50.802;4.336;2023-04-28T13:07:41;3.38;;;1.90;;
14470;SDS011;7321;50.802;4.336;2023-04-28T13:10:07;1.73;;;1.27;;
14470;SDS011;7321;50.802;4.336;2023-04-28T13:12:33;2.38;;;1.52;;
14470;SDS011;7321;50.802;4.336;2023-04-28T13:15:02;1.40;;;1.20;;
14470;SDS011;7321;50.802;4.336;2023-04-28T13:17:29;2.25;;;1.50;;
14470;SDS011;7321;50.802;4.336;2023-04-28T13:19:55;2.15;;;1.20;;
14470;SDS011;7321;50.802;4.336;2023-04-28T13:22:20;28.10;;;17.70;;
14470;SDS011;7321;50.802;4.336;2023-04-28T13:24:46;2.05;;;1.90;;
14470;SDS011;7321;50.802;4.336;2023-04-28T13:27:12;2.08;;;1.70;;
14470;SDS011;7321;50.802;4.336;2023-04-28T13:29:38;1.80;;;1.63;;
14470;SDS011;7321;50.802;4.336;2023-04-28T13:32:05;1.30;;;1.20;;
14470;SDS011;7321;50.802;4.336;2023-04-28T13:34:31;1.73;;;1.45;;
14470;SDS011;7321;50.802;4.336;2023-04-28T13:36:56;2.05;;;1.73;;
14470;SDS011;7321;50.802;4.336;2023-04-28T13:39:22;2.10;;;1.50;;
14470;SDS011;7321;50.802;4.336;2023-04-28T13:41:48;3.03;;;1.50;;
14470;SDS011;7321;50.802;4.336;2023-04-28T13:44:14;6.93;;;6.22;;
14470;SDS011;7321;50.802;4.336;2023-04-28T13:46:41;46.28;;;28.10;;
14470;SDS011;7321;50.802;4.336;2023-04-28T13:49:11;2.00;;;1.77;;
14470;SDS011;7321;50.802;4.336;2023-04-28T13:51:37;7.40;;;5.70;;
14470;SDS011;7321;50.802;4.336;2023-04-28T13:54:03;13.32;;;11.32;;
14470;SDS011;7321;50.802;4.336;2023-04-28T13:56:33;8.00;;;7.10;;
14470;SDS011;7321;50.802;4.336;2023-04-28T13:59:00;7.15;;;6.43;;
14470;SDS011;7321;50.802;4.336;2023-04-28T14:01:26;7.57;;;5.57;;
14470;SDS011;7321;50.802;4.336;2023-04-28T14:03:52;6.30;;;5.68;;
14470;SDS011;7321;50.802;4.336;2023-04-28T14:06:18;3.35;;;2.88;;
14470;SDS011;7321;50.802;4.336;2023-04-28T14:08:45;3.05;;;2.85;;
14470;SDS011;7321;50.802;4.336;2023-04-28T14:11:12;9.60;;;8.68;;
14470;SDS011;7321;50.802;4.336;2023-04-28T14:13:38;7.25;;;6.57;;
14470;SDS011;7321;50.802;4.336;2023-04-28T14:16:03;3.97;;;3.70;;
14470;SDS011;7321;50.802;4.336;2023-04-28T14:18:30;1.52;;;1.42;;
14470;SDS011;7321;50.802;4.336;2023-04-28T14:20:57;1.25;;;1.02;;
14470;SDS011;7321;50.802;4.336;2023-04-28T14:23:24;1.20;;;1.10;;
14470;SDS011;7321;50.802;4.336;2023-04-28T14:25:51;3.78;;;1.10;;
14470;SDS011;7321;50.802;4.336;2023-04-28T14:28:22;1.50;;;1.13;;
14470;SDS011;7321;50.802;4.336;2023-04-28T14:30:48;3.10;;;1.30;;
14470;SDS011;7321;50.802;4.336;2023-04-28T14:33:14;1.30;;;1.20;;
14470;SDS011;7321;50.802;4.336;2023-04-28T14:35:40;1.25;;;1.15;;
14470;SDS011;7321;50.802;4.336;2023-04-28T14:38:06;1.13;;;1.00;;
14470;SDS011;7321;50.802;4.336;2023-04-28T14:40:32;1.80;;;1.10;;
14470;SDS011;7321;50.802;4.336;2023-04-28T14:42:57;1.05;;;1.00;;
14470;SDS011;7321;50.802;4.336;2023-04-28T14:45:30;2.03;;;1.10;;
14470;SDS011;7321;50.802;4.336;2023-04-28T14:47:56;1.70;;;1.25;;
14470;SDS011;7321;50.802;4.336;2023-04-28T14:50:22;5.57;;;1.23;;
14470;SDS011;7321;50.802;4.336;2023-04-28T14:52:47;5.28;;;1.73;;
14470;SDS011;7321;50.802;4.336;2023-04-28T14:55:13;1.33;;;1.23;;
14470;SDS011;7321;50.802;4.336;2023-04-28T14:57:39;3.80;;;1.33;;
14470;SDS011;7321;50.802;4.336;2023-04-28T15:00:15;1.60;;;1.00;;
14470;SDS011;7321;50.802;4.336;2023-04-28T15:02:44;2.08;;;1.90;;
14470;SDS011;7321;50.802;4.336;2023-04-28T15:05:21;1.45;;;1.33;;
14470;SDS011;7321;50.802;4.336;2023-04-28T15:07:47;0.90;;;0.90;;
14470;SDS011;7321;50.802;4.336;2023-04-28T15:10:19;3.10;;;0.90;;
14470;SDS011;7321;50.802;4.336;2023-04-28T15:15:51;1.52;;;0.80;;
14470;SDS011;7321;50.802;4.336;2023-04-28T15:18:17;1.98;;;0.68;;
14470;SDS011;7321;50.802;4.336;2023-04-28T15:20:43;1.88;;;0.90;;
14470;SDS011;7321;50.802;4.336;2023-04-28T15:23:10;0.50;;;0.50;;
14470;SDS011;7321;50.802;4.336;2023-04-28T15:25:39;1.65;;;0.85;;
14470;SDS011;7321;50.802;4.336;2023-04-28T15:28:11;0.90;;;0.60;;
14470;SDS011;7321;50.802;4.336;2023-04-28T15:30:37;0.70;;;0.50;;